sensor_id;sensor_type;location;lat;lon;timestamp;temperature;humidity
58554;DHT22;48119;53.218;6.576;2022-09-20T00:00:23;14.50;91.70
58554;DHT22;48119;53.218;6.576;2022-09-20T00:02:48;14.40;91.80
58554;DHT22;48119;53.218;6.576;2022-09-20T00:05:14;14.40;91.80
58554;DHT22;48119;53.218;6.576;2022-09-20T00:07:43;14.40;91.70
58554;DHT22;48119;53.218;6.576;2022-09-20T00:10:09;14.40;91.70
58554;DHT22;48119;53.218;6.576;2022-09-20T00:12:36;14.40;91.70
58554;DHT22;48119;53.218;6.576;2022-09-20T00:15:03;14.30;91.70
58554;DHT22;48119;53.218;6.576;2022-09-20T00:17:28;14.30;91.70
58554;DHT22;48119;53.218;6.576;2022-09-20T00:19:54;14.30;91.70
58554;DHT22;48119;53.218;6.576;2022-09-20T00:22:20;14.30;91.60
58554;DHT22;48119;53.218;6.576;2022-09-20T00:24:46;14.30;91.60
58554;DHT22;48119;53.218;6.576;2022-09-20T00:27:12;14.20;91.50
58554;DHT22;48119;53.218;6.576;2022-09-20T00:29:37;14.20;91.60
58554;DHT22;48119;53.218;6.576;2022-09-20T00:32:03;14.20;91.60
58554;DHT22;48119;53.218;6.576;2022-09-20T00:34:29;14.20;91.60
58554;DHT22;48119;53.218;6.576;2022-09-20T00:37:13;14.20;91.60
58554;DHT22;48119;53.218;6.576;2022-09-20T00:39:39;14.10;91.50
58554;DHT22;48119;53.218;6.576;2022-09-20T00:42:05;14.10;91.30
58554;DHT22;48119;53.218;6.576;2022-09-20T00:44:53;14.10;91.20
58554;DHT22;48119;53.218;6.576;2022-09-20T00:52:51;14.00;91.00
58554;DHT22;48119;53.218;6.576;2022-09-20T00:55:19;14.00;91.00
58554;DHT22;48119;53.218;6.576;2022-09-20T00:57:46;14.00;91.00
58554;DHT22;48119;53.218;6.576;2022-09-20T01:00:12;14.00;90.90
58554;DHT22;48119;53.218;6.576;2022-09-20T01:02:45;13.90;90.80
58554;DHT22;48119;53.218;6.576;2022-09-20T01:05:13;13.90;90.90
58554;DHT22;48119;53.218;6.576;2022-09-20T01:07:41;13.90;90.90
58554;DHT22;48119;53.218;6.576;2022-09-20T01:10:08;13.90;90.90
58554;DHT22;48119;53.218;6.576;2022-09-20T01:12:34;13.90;91.00
58554;DHT22;48119;53.218;6.576;2022-09-20T01:15:04;13.90;91.00
58554;DHT22;48119;53.218;6.576;2022-09-20T01:17:32;13.80;91.00
58554;DHT22;48119;53.218;6.576;2022-09-20T01:20:14;13.80;90.90
58554;DHT22;48119;53.218;6.576;2022-09-20T01:23:07;13.80;90.80
58554;DHT22;48119;53.218;6.576;2022-09-20T01:25:50;13.80;90.60
58554;DHT22;48119;53.218;6.576;2022-09-20T01:28:17;13.80;90.80
58554;DHT22;48119;53.218;6.576;2022-09-20T01:35:46;13.70;91.10
58554;DHT22;48119;53.218;6.576;2022-09-20T01:41:08;13.70;91.20
58554;DHT22;48119;53.218;6.576;2022-09-20T01:43:54;13.70;91.30
58554;DHT22;48119;53.218;6.576;2022-09-20T01:48:58;13.60;91.20
58554;DHT22;48119;53.218;6.576;2022-09-20T01:51:40;13.60;91.10
58554;DHT22;48119;53.218;6.576;2022-09-20T01:54:32;13.60;91.10
58554;DHT22;48119;53.218;6.576;2022-09-20T02:15:02;13.50;91.20
58554;DHT22;48119;53.218;6.576;2022-09-20T02:20:29;13.50;91.30
58554;DHT22;48119;53.218;6.576;2022-09-20T02:23:37;13.60;91.20
58554;DHT22;48119;53.218;6.576;2022-09-20T02:26:12;13.60;91.00
58554;DHT22;48119;53.218;6.576;2022-09-20T02:39:21;13.60;91.00
58554;DHT22;48119;53.218;6.576;2022-09-20T02:41:52;13.50;90.90
58554;DHT22;48119;53.218;6.576;2022-09-20T02:47:24;13.50;91.00
58554;DHT22;48119;53.218;6.576;2022-09-20T02:53:02;13.50;91.10
58554;DHT22;48119;53.218;6.576;2022-09-20T03:21:08;13.40;90.90
58554;DHT22;48119;53.218;6.576;2022-09-20T03:23:13;13.40;90.90
58554;DHT22;48119;53.218;6.576;2022-09-20T03:34:15;13.40;90.80
58554;DHT22;48119;53.218;6.576;2022-09-20T03:42:45;13.30;91.00
58554;DHT22;48119;53.218;6.576;2022-09-20T03:50:40;13.20;91.10
58554;DHT22;48119;53.218;6.576;2022-09-20T03:56:12;13.20;91.20
58554;DHT22;48119;53.218;6.576;2022-09-20T03:59:05;13.20;91.20
58554;DHT22;48119;53.218;6.576;2022-09-20T04:04:13;13.30;91.30
58554;DHT22;48119;53.218;6.576;2022-09-20T04:12:38;13.30;91.60
58554;DHT22;48119;53.218;6.576;2022-09-20T04:18:15;13.30;91.60
58554;DHT22;48119;53.218;6.576;2022-09-20T04:23:49;13.30;91.70
58554;DHT22;48119;53.218;6.576;2022-09-20T04:26:46;13.30;91.80
58554;DHT22;48119;53.218;6.576;2022-09-20T04:32:05;13.30;91.90
58554;DHT22;48119;53.218;6.576;2022-09-20T04:34:47;13.30;91.90
58554;DHT22;48119;53.218;6.576;2022-09-20T04:37:35;13.30;92.00
58554;DHT22;48119;53.218;6.576;2022-09-20T04:51:42;13.40;92.20
58554;DHT22;48119;53.218;6.576;2022-09-20T04:54:35;13.40;92.20
58554;DHT22;48119;53.218;6.576;2022-09-20T05:00:17;13.40;92.20
58554;DHT22;48119;53.218;6.576;2022-09-20T05:06:03;13.40;92.40
58554;DHT22;48119;53.218;6.576;2022-09-20T05:08:45;13.40;92.50
58554;DHT22;48119;53.218;6.576;2022-09-20T05:14:36;13.40;92.80
58554;DHT22;48119;53.218;6.576;2022-09-20T05:31:00;13.50;93.20
58554;DHT22;48119;53.218;6.576;2022-09-20T05:33:50;13.50;93.20
58554;DHT22;48119;53.218;6.576;2022-09-20T05:36:38;13.60;93.30
58554;DHT22;48119;53.218;6.576;2022-09-20T05:41:59;13.60;93.50
58554;DHT22;48119;53.218;6.576;2022-09-20T06:14:38;13.60;93.80
58554;DHT22;48119;53.218;6.576;2022-09-20T06:17:27;13.60;93.80
58554;DHT22;48119;53.218;6.576;2022-09-20T06:20:34;13.60;93.90
58554;DHT22;48119;53.218;6.576;2022-09-20T06:23:03;13.70;93.90
58554;DHT22;48119;53.218;6.576;2022-09-20T06:28:20;13.70;93.80
58554;DHT22;48119;53.218;6.576;2022-09-20T06:30:53;13.80;93.60
58554;DHT22;48119;53.218;6.576;2022-09-20T06:33:24;13.70;93.40
58554;DHT22;48119;53.218;6.576;2022-09-20T06:36:06;13.80;93.40
58554;DHT22;48119;53.218;6.576;2022-09-20T06:41:39;13.90;93.60
58554;DHT22;48119;53.218;6.576;2022-09-20T06:44:06;13.90;93.80
58554;DHT22;48119;53.218;6.576;2022-09-20T06:46:33;13.90;93.90
58554;DHT22;48119;53.218;6.576;2022-09-20T06:49:01;13.90;94.00
58554;DHT22;48119;53.218;6.576;2022-09-20T06:51:32;13.90;94.10
58554;DHT22;48119;53.218;6.576;2022-09-20T06:53:58;13.90;94.10
58554;DHT22;48119;53.218;6.576;2022-09-20T06:56:27;13.90;94.30
58554;DHT22;48119;53.218;6.576;2022-09-20T06:58:54;13.90;94.30
58554;DHT22;48119;53.218;6.576;2022-09-20T07:01:20;13.90;94.30
58554;DHT22;48119;53.218;6.576;2022-09-20T07:03:46;13.90;94.30
58554;DHT22;48119;53.218;6.576;2022-09-20T07:06:12;13.90;94.30
58554;DHT22;48119;53.218;6.576;2022-09-20T07:08:42;13.90;94.40
58554;DHT22;48119;53.218;6.576;2022-09-20T07:11:15;13.90;94.30
58554;DHT22;48119;53.218;6.576;2022-09-20T07:13:42;13.90;94.20
58554;DHT22;48119;53.218;6.576;2022-09-20T07:16:12;14.00;94.50
58554;DHT22;48119;53.218;6.576;2022-09-20T07:18:38;14.00;94.20
58554;DHT22;48119;53.218;6.576;2022-09-20T07:21:07;14.00;94.30
58554;DHT22;48119;53.218;6.576;2022-09-20T07:23:33;14.00;94.40
58554;DHT22;48119;53.218;6.576;2022-09-20T07:25:59;14.00;94.20
58554;DHT22;48119;53.218;6.576;2022-09-20T07:28:30;14.00;94.20
58554;DHT22;48119;53.218;6.576;2022-09-20T07:30:56;14.00;94.20
58554;DHT22;48119;53.218;6.576;2022-09-20T07:33:22;14.00;94.20
58554;DHT22;48119;53.218;6.576;2022-09-20T07:35:53;14.10;94.30
58554;DHT22;48119;53.218;6.576;2022-09-20T07:38:20;14.10;94.30
58554;DHT22;48119;53.218;6.576;2022-09-20T07:41:00;14.10;94.30
58554;DHT22;48119;53.218;6.576;2022-09-20T07:43:29;14.10;94.30
58554;DHT22;48119;53.218;6.576;2022-09-20T07:45:55;14.10;94.40
58554;DHT22;48119;53.218;6.576;2022-09-20T07:48:44;14.10;94.40
58554;DHT22;48119;53.218;6.576;2022-09-20T07:51:12;14.20;94.40
58554;DHT22;48119;53.218;6.576;2022-09-20T07:53:38;14.20;94.40
58554;DHT22;48119;53.218;6.576;2022-09-20T07:56:15;14.20;94.20
58554;DHT22;48119;53.218;6.576;2022-09-20T07:58:42;14.30;94.10
58554;DHT22;48119;53.218;6.576;2022-09-20T08:01:10;14.30;94.00
58554;DHT22;48119;53.218;6.576;2022-09-20T08:03:38;14.40;93.80
58554;DHT22;48119;53.218;6.576;2022-09-20T08:06:09;14.40;93.70
58554;DHT22;48119;53.218;6.576;2022-09-20T08:08:36;14.40;93.70
58554;DHT22;48119;53.218;6.576;2022-09-20T08:11:08;14.50;93.70
58554;DHT22;48119;53.218;6.576;2022-09-20T08:13:42;14.50;93.50
58554;DHT22;48119;53.218;6.576;2022-09-20T08:16:09;14.60;93.60
58554;DHT22;48119;53.218;6.576;2022-09-20T08:18:35;14.60;93.60
58554;DHT22;48119;53.218;6.576;2022-09-20T08:21:03;14.60;93.50
58554;DHT22;48119;53.218;6.576;2022-09-20T08:23:39;14.60;93.50
58554;DHT22;48119;53.218;6.576;2022-09-20T08:26:06;14.70;93.50
58554;DHT22;48119;53.218;6.576;2022-09-20T08:28:32;14.70;93.40
58554;DHT22;48119;53.218;6.576;2022-09-20T08:31:02;14.80;93.40
58554;DHT22;48119;53.218;6.576;2022-09-20T08:33:28;14.80;93.30
58554;DHT22;48119;53.218;6.576;2022-09-20T08:35:54;14.90;93.10
58554;DHT22;48119;53.218;6.576;2022-09-20T08:38:19;14.90;92.90
58554;DHT22;48119;53.218;6.576;2022-09-20T08:40:47;15.00;92.60
58554;DHT22;48119;53.218;6.576;2022-09-20T08:43:14;15.00;92.20
58554;DHT22;48119;53.218;6.576;2022-09-20T08:45:40;15.00;92.00
58554;DHT22;48119;53.218;6.576;2022-09-20T08:48:09;15.00;91.80
58554;DHT22;48119;53.218;6.576;2022-09-20T08:50:37;15.10;91.70
58554;DHT22;48119;53.218;6.576;2022-09-20T08:53:10;15.10;91.70
58554;DHT22;48119;53.218;6.576;2022-09-20T08:55:39;15.10;91.30
58554;DHT22;48119;53.218;6.576;2022-09-20T08:58:09;15.10;90.80
58554;DHT22;48119;53.218;6.576;2022-09-20T09:00:37;15.10;90.60
58554;DHT22;48119;53.218;6.576;2022-09-20T09:03:06;15.10;90.60
58554;DHT22;48119;53.218;6.576;2022-09-20T09:06:03;15.10;90.60
58554;DHT22;48119;53.218;6.576;2022-09-20T09:08:36;15.10;90.40
58554;DHT22;48119;53.218;6.576;2022-09-20T09:11:07;15.10;90.30
58554;DHT22;48119;53.218;6.576;2022-09-20T09:16:24;15.10;90.10
58554;DHT22;48119;53.218;6.576;2022-09-20T09:18:50;15.20;90.00
58554;DHT22;48119;53.218;6.576;2022-09-20T09:21:21;15.20;89.80
58554;DHT22;48119;53.218;6.576;2022-09-20T09:24:11;15.20;88.40
58554;DHT22;48119;53.218;6.576;2022-09-20T09:26:42;15.20;87.60
58554;DHT22;48119;53.218;6.576;2022-09-20T09:29:23;15.30;87.50
58554;DHT22;48119;53.218;6.576;2022-09-20T09:31:52;15.30;87.20
58554;DHT22;48119;53.218;6.576;2022-09-20T09:34:32;15.30;87.60
58554;DHT22;48119;53.218;6.576;2022-09-20T09:36:59;15.30;87.90
58554;DHT22;48119;53.218;6.576;2022-09-20T09:39:28;15.40;88.20
58554;DHT22;48119;53.218;6.576;2022-09-20T09:41:54;15.40;88.30
58554;DHT22;48119;53.218;6.576;2022-09-20T09:44:25;15.40;88.30
58554;DHT22;48119;53.218;6.576;2022-09-20T09:46:53;15.40;88.40
58554;DHT22;48119;53.218;6.576;2022-09-20T09:49:30;15.50;88.80
58554;DHT22;48119;53.218;6.576;2022-09-20T09:52:15;15.50;89.00
58554;DHT22;48119;53.218;6.576;2022-09-20T09:54:46;15.50;89.10
58554;DHT22;48119;53.218;6.576;2022-09-20T10:13:44;15.60;86.60
58554;DHT22;48119;53.218;6.576;2022-09-20T10:16:41;15.60;86.90
58554;DHT22;48119;53.218;6.576;2022-09-20T10:22:28;15.70;86.90
58554;DHT22;48119;53.218;6.576;2022-09-20T10:26:11;15.70;87.10
58554;DHT22;48119;53.218;6.576;2022-09-20T10:31:53;15.70;87.00
58554;DHT22;48119;53.218;6.576;2022-09-20T10:41:42;15.90;86.70
58554;DHT22;48119;53.218;6.576;2022-09-20T10:47:24;16.00;87.00
58554;DHT22;48119;53.218;6.576;2022-09-20T10:55:44;16.00;86.30
58554;DHT22;48119;53.218;6.576;2022-09-20T11:01:24;16.10;86.00
58554;DHT22;48119;53.218;6.576;2022-09-20T11:07:04;16.10;85.30
58554;DHT22;48119;53.218;6.576;2022-09-20T11:09:41;16.10;84.70
58554;DHT22;48119;53.218;6.576;2022-09-20T11:12:19;16.10;84.60
58554;DHT22;48119;53.218;6.576;2022-09-20T11:14:54;16.10;84.70
58554;DHT22;48119;53.218;6.576;2022-09-20T11:17:31;16.10;84.40
58554;DHT22;48119;53.218;6.576;2022-09-20T11:20:14;16.10;83.90
58554;DHT22;48119;53.218;6.576;2022-09-20T11:23:17;16.10;83.40
58554;DHT22;48119;53.218;6.576;2022-09-20T11:25:52;16.20;83.30
58554;DHT22;48119;53.218;6.576;2022-09-20T11:28:30;16.20;82.90
58554;DHT22;48119;53.218;6.576;2022-09-20T11:36:51;16.30;82.50
58554;DHT22;48119;53.218;6.576;2022-09-20T11:39:51;16.40;82.40
58554;DHT22;48119;53.218;6.576;2022-09-20T11:42:21;16.50;82.20
58554;DHT22;48119;53.218;6.576;2022-09-20T11:44:49;16.50;81.50
58554;DHT22;48119;53.218;6.576;2022-09-20T11:47:32;16.60;81.40
58554;DHT22;48119;53.218;6.576;2022-09-20T11:52:57;16.70;82.30
58554;DHT22;48119;53.218;6.576;2022-09-20T11:55:30;16.70;82.60
58554;DHT22;48119;53.218;6.576;2022-09-20T11:58:01;16.70;83.30
58554;DHT22;48119;53.218;6.576;2022-09-20T12:00:29;16.80;82.90
58554;DHT22;48119;53.218;6.576;2022-09-20T12:02:57;16.80;82.50
58554;DHT22;48119;53.218;6.576;2022-09-20T12:05:29;16.80;82.30
58554;DHT22;48119;53.218;6.576;2022-09-20T12:07:59;16.70;82.40
58554;DHT22;48119;53.218;6.576;2022-09-20T12:10:28;16.80;82.60
58554;DHT22;48119;53.218;6.576;2022-09-20T12:13:06;16.70;82.70
58554;DHT22;48119;53.218;6.576;2022-09-20T12:15:40;16.70;82.90
58554;DHT22;48119;53.218;6.576;2022-09-20T12:21:16;16.60;83.00
58554;DHT22;48119;53.218;6.576;2022-09-20T12:23:45;16.60;83.10
58554;DHT22;48119;53.218;6.576;2022-09-20T12:28:51;16.60;83.30
58554;DHT22;48119;53.218;6.576;2022-09-20T12:36:41;16.50;82.90
58554;DHT22;48119;53.218;6.576;2022-09-20T12:42:00;16.50;82.30
58554;DHT22;48119;53.218;6.576;2022-09-20T13:03:32;16.60;81.70
58554;DHT22;48119;53.218;6.576;2022-09-20T13:14:21;16.60;82.20
58554;DHT22;48119;53.218;6.576;2022-09-20T13:17:12;16.70;82.30
58554;DHT22;48119;53.218;6.576;2022-09-20T13:19:47;16.70;83.10
58554;DHT22;48119;53.218;6.576;2022-09-20T13:22:34;16.70;84.10
58554;DHT22;48119;53.218;6.576;2022-09-20T13:25:05;16.80;85.50
58554;DHT22;48119;53.218;6.576;2022-09-20T13:30:35;16.80;86.40
58554;DHT22;48119;53.218;6.576;2022-09-20T13:33:23;16.80;87.00
58554;DHT22;48119;53.218;6.576;2022-09-20T13:35:54;16.80;87.40
58554;DHT22;48119;53.218;6.576;2022-09-20T13:38:26;16.80;87.10
58554;DHT22;48119;53.218;6.576;2022-09-20T13:41:02;16.80;86.90
58554;DHT22;48119;53.218;6.576;2022-09-20T13:43:36;16.80;86.80
58554;DHT22;48119;53.218;6.576;2022-09-20T13:46:10;16.80;86.80
58554;DHT22;48119;53.218;6.576;2022-09-20T13:48:36;16.70;86.80
58554;DHT22;48119;53.218;6.576;2022-09-20T13:51:02;16.70;87.20
58554;DHT22;48119;53.218;6.576;2022-09-20T13:53:29;16.70;87.50
58554;DHT22;48119;53.218;6.576;2022-09-20T13:55:55;16.80;87.50
58554;DHT22;48119;53.218;6.576;2022-09-20T13:58:33;16.80;87.30
58554;DHT22;48119;53.218;6.576;2022-09-20T14:01:05;16.80;86.80
58554;DHT22;48119;53.218;6.576;2022-09-20T14:03:34;16.80;86.10
58554;DHT22;48119;53.218;6.576;2022-09-20T14:06:03;16.80;85.70
58554;DHT22;48119;53.218;6.576;2022-09-20T14:11:18;16.80;85.00
58554;DHT22;48119;53.218;6.576;2022-09-20T14:13:47;16.70;85.20
58554;DHT22;48119;53.218;6.576;2022-09-20T14:16:15;16.70;85.50
58554;DHT22;48119;53.218;6.576;2022-09-20T14:18:43;16.70;85.80
58554;DHT22;48119;53.218;6.576;2022-09-20T14:21:10;16.70;85.60
58554;DHT22;48119;53.218;6.576;2022-09-20T14:23:51;16.70;85.30
58554;DHT22;48119;53.218;6.576;2022-09-20T14:26:23;16.70;85.00
58554;DHT22;48119;53.218;6.576;2022-09-20T14:28:50;16.70;84.90
58554;DHT22;48119;53.218;6.576;2022-09-20T14:31:30;16.70;84.60
58554;DHT22;48119;53.218;6.576;2022-09-20T14:34:00;16.70;84.60
58554;DHT22;48119;53.218;6.576;2022-09-20T14:36:29;16.60;84.70
58554;DHT22;48119;53.218;6.576;2022-09-20T14:39:00;16.70;85.20
58554;DHT22;48119;53.218;6.576;2022-09-20T14:41:38;16.60;86.00
58554;DHT22;48119;53.218;6.576;2022-09-20T14:44:16;16.70;87.30
58554;DHT22;48119;53.218;6.576;2022-09-20T14:46:44;16.60;88.10
58554;DHT22;48119;53.218;6.576;2022-09-20T14:49:20;16.60;89.10
58554;DHT22;48119;53.218;6.576;2022-09-20T14:51:46;16.60;90.10
58554;DHT22;48119;53.218;6.576;2022-09-20T14:56:48;16.60;90.00
58554;DHT22;48119;53.218;6.576;2022-09-20T15:01:58;16.60;90.10
58554;DHT22;48119;53.218;6.576;2022-09-20T15:04:25;16.60;90.30
58554;DHT22;48119;53.218;6.576;2022-09-20T15:06:53;16.60;90.10
58554;DHT22;48119;53.218;6.576;2022-09-20T15:09:20;16.60;90.00
58554;DHT22;48119;53.218;6.576;2022-09-20T15:11:46;16.60;90.00
58554;DHT22;48119;53.218;6.576;2022-09-20T15:14:14;16.60;89.50
58554;DHT22;48119;53.218;6.576;2022-09-20T15:16:40;16.50;88.80
58554;DHT22;48119;53.218;6.576;2022-09-20T15:19:05;16.50;88.60
58554;DHT22;48119;53.218;6.576;2022-09-20T15:21:32;16.50;88.40
58554;DHT22;48119;53.218;6.576;2022-09-20T15:23:58;16.50;88.10
58554;DHT22;48119;53.218;6.576;2022-09-20T15:26:24;16.50;87.70
58554;DHT22;48119;53.218;6.576;2022-09-20T15:28:49;16.50;87.20
58554;DHT22;48119;53.218;6.576;2022-09-20T15:31:15;16.40;86.80
58554;DHT22;48119;53.218;6.576;2022-09-20T15:33:43;16.40;86.70
58554;DHT22;48119;53.218;6.576;2022-09-20T15:36:09;16.40;86.90
58554;DHT22;48119;53.218;6.576;2022-09-20T15:38:35;16.50;86.70
58554;DHT22;48119;53.218;6.576;2022-09-20T15:41:01;16.40;86.80
58554;DHT22;48119;53.218;6.576;2022-09-20T15:43:29;16.40;87.30
58554;DHT22;48119;53.218;6.576;2022-09-20T15:45:57;16.40;87.50
58554;DHT22;48119;53.218;6.576;2022-09-20T15:48:28;16.40;87.20
58554;DHT22;48119;53.218;6.576;2022-09-20T15:51:00;16.40;86.80
58554;DHT22;48119;53.218;6.576;2022-09-20T15:53:31;16.40;86.60
58554;DHT22;48119;53.218;6.576;2022-09-20T15:55:58;16.40;86.80
58554;DHT22;48119;53.218;6.576;2022-09-20T15:58:30;16.40;86.90
58554;DHT22;48119;53.218;6.576;2022-09-20T16:01:07;16.40;87.00
58554;DHT22;48119;53.218;6.576;2022-09-20T16:03:36;16.40;87.30
58554;DHT22;48119;53.218;6.576;2022-09-20T16:06:06;16.40;87.70
58554;DHT22;48119;53.218;6.576;2022-09-20T16:08:37;16.30;88.00
58554;DHT22;48119;53.218;6.576;2022-09-20T16:11:05;16.30;88.20
58554;DHT22;48119;53.218;6.576;2022-09-20T16:13:31;16.30;88.40
58554;DHT22;48119;53.218;6.576;2022-09-20T16:15:58;16.30;88.30
58554;DHT22;48119;53.218;6.576;2022-09-20T16:18:25;16.30;88.30
58554;DHT22;48119;53.218;6.576;2022-09-20T16:21:11;16.30;88.30
58554;DHT22;48119;53.218;6.576;2022-09-20T16:23:38;16.30;88.40
58554;DHT22;48119;53.218;6.576;2022-09-20T16:26:05;16.30;88.60
58554;DHT22;48119;53.218;6.576;2022-09-20T16:28:31;16.30;88.70
58554;DHT22;48119;53.218;6.576;2022-09-20T16:30:58;16.30;89.00
58554;DHT22;48119;53.218;6.576;2022-09-20T16:33:25;16.30;89.10
58554;DHT22;48119;53.218;6.576;2022-09-20T16:35:51;16.30;89.00
58554;DHT22;48119;53.218;6.576;2022-09-20T16:38:16;16.30;89.20
58554;DHT22;48119;53.218;6.576;2022-09-20T16:40:46;16.30;89.70
58554;DHT22;48119;53.218;6.576;2022-09-20T16:43:13;16.30;90.00
58554;DHT22;48119;53.218;6.576;2022-09-20T16:45:59;16.30;90.10
58554;DHT22;48119;53.218;6.576;2022-09-20T16:48:26;16.30;90.10
58554;DHT22;48119;53.218;6.576;2022-09-20T16:50:56;16.30;90.50
58554;DHT22;48119;53.218;6.576;2022-09-20T16:53:27;16.30;90.20
58554;DHT22;48119;53.218;6.576;2022-09-20T16:55:53;16.20;90.30
58554;DHT22;48119;53.218;6.576;2022-09-20T16:58:28;16.30;90.40
58554;DHT22;48119;53.218;6.576;2022-09-20T17:01:08;16.20;90.30
58554;DHT22;48119;53.218;6.576;2022-09-20T17:03:35;16.20;90.40
58554;DHT22;48119;53.218;6.576;2022-09-20T17:06:06;16.20;90.50
58554;DHT22;48119;53.218;6.576;2022-09-20T17:08:33;16.20;90.50
58554;DHT22;48119;53.218;6.576;2022-09-20T17:11:04;16.20;90.60
58554;DHT22;48119;53.218;6.576;2022-09-20T17:13:30;16.20;90.60
58554;DHT22;48119;53.218;6.576;2022-09-20T17:16:01;16.20;90.60
58554;DHT22;48119;53.218;6.576;2022-09-20T17:18:28;16.20;90.70
58554;DHT22;48119;53.218;6.576;2022-09-20T17:20:53;16.10;90.60
58554;DHT22;48119;53.218;6.576;2022-09-20T17:23:19;16.10;90.60
58554;DHT22;48119;53.218;6.576;2022-09-20T17:25:45;16.10;90.80
58554;DHT22;48119;53.218;6.576;2022-09-20T17:28:13;16.10;90.80
58554;DHT22;48119;53.218;6.576;2022-09-20T17:30:39;16.10;90.90
58554;DHT22;48119;53.218;6.576;2022-09-20T17:33:08;16.10;90.90
58554;DHT22;48119;53.218;6.576;2022-09-20T17:35:33;16.10;91.00
58554;DHT22;48119;53.218;6.576;2022-09-20T17:37:59;16.10;91.00
58554;DHT22;48119;53.218;6.576;2022-09-20T17:40:25;16.10;91.10
58554;DHT22;48119;53.218;6.576;2022-09-20T17:42:50;16.10;91.20
58554;DHT22;48119;53.218;6.576;2022-09-20T17:45:16;16.10;91.30
58554;DHT22;48119;53.218;6.576;2022-09-20T17:47:42;16.00;91.20
58554;DHT22;48119;53.218;6.576;2022-09-20T17:50:09;16.00;91.20
58554;DHT22;48119;53.218;6.576;2022-09-20T17:52:40;16.00;91.30
58554;DHT22;48119;53.218;6.576;2022-09-20T17:55:06;16.00;91.30
58554;DHT22;48119;53.218;6.576;2022-09-20T17:57:36;16.00;91.40
58554;DHT22;48119;53.218;6.576;2022-09-20T18:00:02;16.00;91.50
58554;DHT22;48119;53.218;6.576;2022-09-20T18:02:29;16.00;91.50
58554;DHT22;48119;53.218;6.576;2022-09-20T18:04:55;15.90;91.50
58554;DHT22;48119;53.218;6.576;2022-09-20T18:07:20;16.00;91.60
58554;DHT22;48119;53.218;6.576;2022-09-20T18:09:46;15.90;91.60
58554;DHT22;48119;53.218;6.576;2022-09-20T18:12:12;15.90;91.70
58554;DHT22;48119;53.218;6.576;2022-09-20T18:14:38;15.90;91.80
58554;DHT22;48119;53.218;6.576;2022-09-20T18:17:04;15.90;91.80
58554;DHT22;48119;53.218;6.576;2022-09-20T18:19:29;15.90;91.90
58554;DHT22;48119;53.218;6.576;2022-09-20T18:21:59;15.80;91.90
58554;DHT22;48119;53.218;6.576;2022-09-20T18:24:25;15.80;91.90
58554;DHT22;48119;53.218;6.576;2022-09-20T18:26:51;15.80;92.00
58554;DHT22;48119;53.218;6.576;2022-09-20T18:29:17;15.80;92.00
58554;DHT22;48119;53.218;6.576;2022-09-20T18:31:49;15.80;92.00
58554;DHT22;48119;53.218;6.576;2022-09-20T18:34:21;15.80;92.00
58554;DHT22;48119;53.218;6.576;2022-09-20T18:36:55;15.80;92.00
58554;DHT22;48119;53.218;6.576;2022-09-20T18:39:29;15.70;92.10
58554;DHT22;48119;53.218;6.576;2022-09-20T18:41:57;15.70;92.10
58554;DHT22;48119;53.218;6.576;2022-09-20T18:44:22;15.70;92.10
58554;DHT22;48119;53.218;6.576;2022-09-20T18:46:49;15.70;92.10
58554;DHT22;48119;53.218;6.576;2022-09-20T18:49:19;15.70;92.10
58554;DHT22;48119;53.218;6.576;2022-09-20T18:51:46;15.60;92.20
58554;DHT22;48119;53.218;6.576;2022-09-20T18:54:14;15.60;92.30
58554;DHT22;48119;53.218;6.576;2022-09-20T18:56:44;15.60;92.30
58554;DHT22;48119;53.218;6.576;2022-09-20T18:59:19;15.60;92.30
58554;DHT22;48119;53.218;6.576;2022-09-20T19:26:42;15.40;92.60
58554;DHT22;48119;53.218;6.576;2022-09-20T19:31:44;15.50;92.70
58554;DHT22;48119;53.218;6.576;2022-09-20T19:34:19;15.40;92.70
58554;DHT22;48119;53.218;6.576;2022-09-20T19:39:46;15.40;92.80
58554;DHT22;48119;53.218;6.576;2022-09-20T19:48:20;15.40;92.80
58554;DHT22;48119;53.218;6.576;2022-09-20T19:50:53;15.40;92.90
58554;DHT22;48119;53.218;6.576;2022-09-20T19:53:21;15.30;92.80
58554;DHT22;48119;53.218;6.576;2022-09-20T19:55:59;15.30;92.90
58554;DHT22;48119;53.218;6.576;2022-09-20T19:58:28;15.30;92.90
58554;DHT22;48119;53.218;6.576;2022-09-20T20:00:54;15.30;92.90
58554;DHT22;48119;53.218;6.576;2022-09-20T20:03:20;15.30;93.00
58554;DHT22;48119;53.218;6.576;2022-09-20T20:06:12;15.30;93.00
58554;DHT22;48119;53.218;6.576;2022-09-20T20:09:09;15.30;93.10
58554;DHT22;48119;53.218;6.576;2022-09-20T20:14:52;15.20;93.10
58554;DHT22;48119;53.218;6.576;2022-09-20T20:17:43;15.20;93.10
58554;DHT22;48119;53.218;6.576;2022-09-20T20:23:21;15.10;93.10
58554;DHT22;48119;53.218;6.576;2022-09-20T20:28:33;15.10;93.10
58554;DHT22;48119;53.218;6.576;2022-09-20T20:31:00;15.10;93.10
58554;DHT22;48119;53.218;6.576;2022-09-20T20:33:27;15.10;93.20
58554;DHT22;48119;53.218;6.576;2022-09-20T20:35:54;15.10;93.20
58554;DHT22;48119;53.218;6.576;2022-09-20T20:38:23;15.10;93.10
58554;DHT22;48119;53.218;6.576;2022-09-20T20:41:00;15.10;93.10
58554;DHT22;48119;53.218;6.576;2022-09-20T20:43:30;15.10;93.20
58554;DHT22;48119;53.218;6.576;2022-09-20T20:45:56;15.00;93.20
58554;DHT22;48119;53.218;6.576;2022-09-20T20:48:21;15.00;93.20
58554;DHT22;48119;53.218;6.576;2022-09-20T20:50:47;15.00;93.30
58554;DHT22;48119;53.218;6.576;2022-09-20T20:53:13;15.00;93.30
58554;DHT22;48119;53.218;6.576;2022-09-20T20:55:39;14.90;93.30
58554;DHT22;48119;53.218;6.576;2022-09-20T20:58:05;14.90;93.40
58554;DHT22;48119;53.218;6.576;2022-09-20T21:00:32;14.90;93.40
58554;DHT22;48119;53.218;6.576;2022-09-20T21:02:59;14.90;93.50
58554;DHT22;48119;53.218;6.576;2022-09-20T21:05:28;14.90;93.50
58554;DHT22;48119;53.218;6.576;2022-09-20T21:07:55;14.90;93.50
58554;DHT22;48119;53.218;6.576;2022-09-20T21:10:22;14.80;93.60
58554;DHT22;48119;53.218;6.576;2022-09-20T21:12:48;14.80;93.60
58554;DHT22;48119;53.218;6.576;2022-09-20T21:15:15;14.80;93.60
58554;DHT22;48119;53.218;6.576;2022-09-20T21:17:48;14.80;93.60
58554;DHT22;48119;53.218;6.576;2022-09-20T21:20:15;14.80;93.60
58554;DHT22;48119;53.218;6.576;2022-09-20T21:22:40;14.80;93.60
58554;DHT22;48119;53.218;6.576;2022-09-20T21:25:06;14.80;93.60
58554;DHT22;48119;53.218;6.576;2022-09-20T21:27:33;14.80;93.60
58554;DHT22;48119;53.218;6.576;2022-09-20T21:30:01;14.80;93.60
58554;DHT22;48119;53.218;6.576;2022-09-20T21:32:27;14.90;93.60
58554;DHT22;48119;53.218;6.576;2022-09-20T21:34:53;14.80;93.60
58554;DHT22;48119;53.218;6.576;2022-09-20T21:37:19;14.80;93.60
58554;DHT22;48119;53.218;6.576;2022-09-20T21:39:44;14.80;93.60
58554;DHT22;48119;53.218;6.576;2022-09-20T21:42:11;14.70;93.60